UGD120 HUEN-HJJJ
Flight info
| Callsign | UGD120 |
|---|---|
| Flight time | 0h 59m |
| Altitude | 34000 |
| Route | UVBAX2B UVBAX UG656 ATUGA ATUGA1A |
| Aircraft | CRJ9/M-SDFGIRWY/S |
Departure
| Time | 2026-05-01 13:07 |
|---|---|
| Airport | Entebbe International Airport (HUEN) |
Arrival
| Time | 2026-05-01 14:06 |
|---|---|
| Airport | Juba International Airport (HJJJ) |
| Time | Latitude | Longitude | Altitude | Speed | Heading |
|---|---|---|---|---|---|
| 2026-05-01 12:43 | 0.04456 | 32.44194 | 3778 ft | 0 kts | 83° |
| 2026-05-01 12:55 | 0.04444 | 32.44145 | 3778 ft | 4 kts | 66° |
| 2026-05-01 12:55 | 0.04430 | 32.44123 | 3780 ft | 4 kts | 40° |
| 2026-05-01 12:55 | 0.04411 | 32.44117 | 3784 ft | 1 kts | 353° |
| 2026-05-01 12:59 | 0.04513 | 32.44104 | 3781 ft | 13 kts | 352° |
| 2026-05-01 12:59 | 0.04612 | 32.44090 | 3783 ft | 16 kts | 351° |
| 2026-05-01 12:59 | 0.04846 | 32.44045 | 3784 ft | 17 kts | 328° |
| 2026-05-01 13:00 | 0.05093 | 32.43985 | 3775 ft | 20 kts | 351° |
| 2026-05-01 13:00 | 0.05221 | 32.43967 | 3778 ft | 14 kts | 349° |
| 2026-05-01 13:01 | 0.05326 | 32.43904 | 3784 ft | 6 kts | 307° |
| 2026-05-01 13:01 | 0.05348 | 32.43873 | 3787 ft | 5 kts | 303° |
| 2026-05-01 13:01 | 0.05443 | 32.43730 | 3785 ft | 16 kts | 313° |
| 2026-05-01 13:02 | 0.05470 | 32.43653 | 3785 ft | 10 kts | 231° |
| 2026-05-01 13:07 | -0.03045 | 32.54933 | 13904 ft | 309 kts | 8° |
| 2026-05-01 13:07 | -0.00934 | 32.55256 | 14527 ft | 313 kts | 9° |
| 2026-05-01 13:07 | 0.01209 | 32.55698 | 15163 ft | 316 kts | 14° |
| 2026-05-01 13:08 | 0.03342 | 32.56281 | 15786 ft | 320 kts | 15° |
| 2026-05-01 13:08 | 0.05500 | 32.56888 | 16402 ft | 324 kts | 15° |
| 2026-05-01 13:08 | 0.07690 | 32.57475 | 16998 ft | 328 kts | 14° |
| 2026-05-01 13:08 | 0.09908 | 32.58057 | 17588 ft | 332 kts | 14° |
| 2026-05-01 13:09 | 0.12163 | 32.58632 | 18171 ft | 336 kts | 14° |
| 2026-05-01 13:09 | 0.14446 | 32.59203 | 18696 ft | 339 kts | 13° |
| 2026-05-01 13:09 | 0.16747 | 32.59763 | 19212 ft | 342 kts | 13° |
| 2026-05-01 13:09 | 0.19061 | 32.60348 | 19726 ft | 344 kts | 14° |
| 2026-05-01 13:10 | 0.21360 | 32.60940 | 20223 ft | 347 kts | 14° |
| 2026-05-01 13:10 | 0.23704 | 32.61542 | 20728 ft | 349 kts | 14° |
| 2026-05-01 13:10 | 0.26068 | 32.62149 | 21224 ft | 352 kts | 14° |
| 2026-05-01 13:10 | 0.28448 | 32.62760 | 21719 ft | 354 kts | 14° |
| 2026-05-01 13:11 | 0.30845 | 32.63376 | 22202 ft | 357 kts | 14° |
| 2026-05-01 13:11 | 0.33300 | 32.63759 | 22634 ft | 360 kts | 356° |
| 2026-05-01 13:11 | 0.35764 | 32.63295 | 23101 ft | 363 kts | 343° |
| 2026-05-01 13:11 | 0.38108 | 32.62432 | 23547 ft | 366 kts | 337° |
| 2026-05-01 13:12 | 0.40442 | 32.61399 | 23928 ft | 368 kts | 336° |
| 2026-05-01 13:12 | 0.42787 | 32.60335 | 24299 ft | 371 kts | 336° |
| 2026-05-01 13:12 | 0.45154 | 32.59292 | 24647 ft | 373 kts | 337° |
| 2026-05-01 13:12 | 0.47561 | 32.58296 | 25000 ft | 376 kts | 338° |
| 2026-05-01 13:13 | 0.49993 | 32.57317 | 25336 ft | 378 kts | 338° |
| 2026-05-01 13:13 | 0.52438 | 32.56318 | 25678 ft | 381 kts | 338° |
| 2026-05-01 13:13 | 0.54900 | 32.55312 | 26012 ft | 383 kts | 338° |
| 2026-05-01 13:13 | 0.57343 | 32.54313 | 26325 ft | 386 kts | 338° |
| 2026-05-01 13:14 | 0.59835 | 32.53293 | 26646 ft | 388 kts | 338° |
| 2026-05-01 13:14 | 0.62343 | 32.52268 | 26947 ft | 391 kts | 338° |
| 2026-05-01 13:14 | 0.64870 | 32.51234 | 27258 ft | 393 kts | 338° |
| 2026-05-01 13:14 | 0.67410 | 32.50195 | 27553 ft | 396 kts | 338° |
| 2026-05-01 13:15 | 0.69966 | 32.49149 | 27865 ft | 398 kts | 338° |
| 2026-05-01 13:15 | 0.72535 | 32.48097 | 28162 ft | 400 kts | 338° |
| 2026-05-01 13:15 | 0.75083 | 32.47054 | 28465 ft | 402 kts | 338° |
| 2026-05-01 13:15 | 0.77676 | 32.45995 | 28756 ft | 404 kts | 338° |
| 2026-05-01 13:16 | 0.80282 | 32.44929 | 29048 ft | 406 kts | 338° |
| 2026-05-01 13:16 | 0.82902 | 32.43857 | 29333 ft | 408 kts | 338° |
| 2026-05-01 13:16 | 0.85538 | 32.42777 | 29608 ft | 410 kts | 338° |
| 2026-05-01 13:17 | 0.92945 | 32.38474 | 30367 ft | 415 kts | 321° |
| 2026-05-01 13:17 | 0.95193 | 32.36657 | 30598 ft | 416 kts | 320° |
| 2026-05-01 13:18 | 0.99688 | 32.33055 | 31047 ft | 419 kts | 322° |
| 2026-05-01 13:18 | 1.02012 | 32.31290 | 31272 ft | 420 kts | 322° |
| 2026-05-01 13:18 | 1.04338 | 32.29519 | 31491 ft | 421 kts | 322° |
| 2026-05-01 13:18 | 1.06668 | 32.27740 | 31729 ft | 422 kts | 322° |
| 2026-05-01 13:19 | 1.09005 | 32.25982 | 32026 ft | 420 kts | 326° |
| 2026-05-01 13:19 | 1.11590 | 32.24634 | 32310 ft | 418 kts | 338° |
| 2026-05-01 13:19 | 1.16998 | 32.22671 | 32944 ft | 414 kts | 343° |
| 2026-05-01 13:20 | 1.19775 | 32.21927 | 33231 ft | 413 kts | 348° |
| 2026-05-01 13:20 | 1.22592 | 32.21403 | 33532 ft | 411 kts | 351° |
| 2026-05-01 13:20 | 1.25412 | 32.20952 | 33808 ft | 410 kts | 351° |
| 2026-05-01 13:21 | 1.31015 | 32.19982 | 34290 ft | 408 kts | 349° |
| 2026-05-01 13:21 | 1.33796 | 32.19430 | 34504 ft | 407 kts | 349° |
| 2026-05-01 13:21 | 1.36570 | 32.18875 | 34699 ft | 407 kts | 349° |
| 2026-05-01 13:21 | 1.39321 | 32.18332 | 34796 ft | 410 kts | 349° |
| 2026-05-01 13:22 | 1.44977 | 32.17258 | 34870 ft | 418 kts | 349° |
| 2026-05-01 13:22 | 1.50765 | 32.16145 | 34889 ft | 428 kts | 349° |
| 2026-05-01 13:23 | 1.56682 | 32.15018 | 34898 ft | 438 kts | 349° |
| 2026-05-01 13:23 | 1.62693 | 32.13874 | 34894 ft | 448 kts | 349° |
| 2026-05-01 13:24 | 1.68876 | 32.12698 | 34887 ft | 457 kts | 349° |
| 2026-05-01 13:25 | 1.78384 | 32.10889 | 34878 ft | 470 kts | 349° |
| 2026-05-01 13:25 | 1.84871 | 32.09653 | 34874 ft | 478 kts | 349° |
| 2026-05-01 13:26 | 1.91392 | 32.08404 | 34866 ft | 480 kts | 349° |
| 2026-05-01 13:26 | 1.97917 | 32.07174 | 34852 ft | 475 kts | 349° |
| 2026-05-01 13:27 | 2.04381 | 32.05940 | 34846 ft | 471 kts | 349° |
| 2026-05-01 13:27 | 2.13932 | 32.04123 | 34839 ft | 465 kts | 349° |
| 2026-05-01 13:28 | 2.23425 | 32.02318 | 34830 ft | 461 kts | 349° |
| 2026-05-01 13:29 | 2.35949 | 31.99935 | 34823 ft | 456 kts | 349° |
| 2026-05-01 13:31 | 2.54666 | 31.96432 | 34821 ft | 458 kts | 352° |
| 2026-05-01 13:32 | 2.70501 | 31.94759 | 34817 ft | 460 kts | 354° |
| 2026-05-01 13:33 | 2.86419 | 31.92952 | 34811 ft | 461 kts | 354° |
| 2026-05-01 13:34 | 2.99136 | 31.91508 | 34805 ft | 462 kts | 354° |
| 2026-05-01 13:35 | 3.08723 | 31.90423 | 34800 ft | 462 kts | 354° |
| 2026-05-01 13:36 | 3.18279 | 31.89342 | 34797 ft | 463 kts | 354° |
| 2026-05-01 13:36 | 3.27888 | 31.88251 | 34793 ft | 463 kts | 354° |
| 2026-05-01 13:37 | 3.34295 | 31.87523 | 34783 ft | 464 kts | 354° |
| 2026-05-01 13:37 | 3.40710 | 31.86795 | 34786 ft | 464 kts | 354° |
| 2026-05-01 13:38 | 3.50290 | 31.85702 | 34776 ft | 464 kts | 354° |
| 2026-05-01 13:39 | 3.56710 | 31.84965 | 34777 ft | 464 kts | 354° |
| 2026-05-01 13:39 | 3.63091 | 31.84232 | 34770 ft | 465 kts | 354° |
| 2026-05-01 13:40 | 3.69512 | 31.83492 | 34775 ft | 465 kts | 354° |
| 2026-05-01 13:40 | 3.75938 | 31.82750 | 34777 ft | 465 kts | 354° |
| 2026-05-01 13:41 | 3.82371 | 31.82011 | 34774 ft | 465 kts | 354° |
| 2026-05-01 13:41 | 3.88761 | 31.81277 | 34769 ft | 466 kts | 354° |
| 2026-05-01 13:41 | 3.91988 | 31.80905 | 34541 ft | 465 kts | 354° |
| 2026-05-01 13:42 | 3.95182 | 31.80538 | 34096 ft | 458 kts | 354° |
| 2026-05-01 13:42 | 3.98308 | 31.80176 | 33465 ft | 445 kts | 354° |
| 2026-05-01 13:42 | 4.01344 | 31.79824 | 32809 ft | 433 kts | 354° |
| 2026-05-01 13:42 | 4.04286 | 31.79446 | 32168 ft | 421 kts | 348° |
| 2026-05-01 13:43 | 4.07036 | 31.78547 | 31546 ft | 412 kts | 334° |
| 2026-05-01 13:43 | 4.09392 | 31.76986 | 30962 ft | 403 kts | 316° |
| 2026-05-01 13:43 | 4.11070 | 31.74831 | 30412 ft | 396 kts | 297° |
| 2026-05-01 13:43 | 4.11944 | 31.72254 | 29866 ft | 390 kts | 278° |
| 2026-05-01 13:44 | 4.12093 | 31.69569 | 29233 ft | 383 kts | 272° |
| 2026-05-01 13:44 | 4.12428 | 31.66930 | 28608 ft | 383 kts | 288° |
| 2026-05-01 13:44 | 4.13377 | 31.64447 | 28000 ft | 382 kts | 294° |
| 2026-05-01 13:44 | 4.14245 | 31.61926 | 27397 ft | 383 kts | 291° |
| 2026-05-01 13:45 | 4.15561 | 31.59628 | 26798 ft | 381 kts | 313° |
| 2026-05-01 13:45 | 4.17514 | 31.57858 | 26239 ft | 379 kts | 323° |
| 2026-05-01 13:45 | 4.19540 | 31.56219 | 25684 ft | 380 kts | 321° |
| 2026-05-01 13:45 | 4.21479 | 31.54410 | 25126 ft | 381 kts | 315° |
| 2026-05-01 13:46 | 4.23245 | 31.52422 | 24579 ft | 383 kts | 310° |
| 2026-05-01 13:46 | 4.24919 | 31.50345 | 24035 ft | 384 kts | 309° |
| 2026-05-01 13:46 | 4.26584 | 31.48255 | 23506 ft | 384 kts | 309° |
| 2026-05-01 13:46 | 4.28261 | 31.46169 | 22877 ft | 384 kts | 310° |
| 2026-05-01 13:47 | 4.29955 | 31.44099 | 22252 ft | 384 kts | 310° |
| 2026-05-01 13:47 | 4.31663 | 31.42044 | 21639 ft | 384 kts | 310° |
| 2026-05-01 13:47 | 4.33355 | 31.40017 | 21039 ft | 382 kts | 311° |
| 2026-05-01 13:47 | 4.35042 | 31.37999 | 20431 ft | 374 kts | 311° |
| 2026-05-01 13:48 | 4.36697 | 31.36020 | 19830 ft | 367 kts | 311° |
| 2026-05-01 13:48 | 4.38320 | 31.34077 | 19329 ft | 359 kts | 311° |
| 2026-05-01 13:48 | 4.39890 | 31.32193 | 19067 ft | 345 kts | 310° |
| 2026-05-01 13:48 | 4.41390 | 31.30393 | 18935 ft | 328 kts | 311° |
| 2026-05-01 13:49 | 4.42909 | 31.28769 | 18856 ft | 312 kts | 326° |
| 2026-05-01 13:49 | 4.44854 | 31.27969 | 18839 ft | 300 kts | 357° |
| 2026-05-01 13:49 | 4.46894 | 31.28125 | 18862 ft | 292 kts | 13° |
| 2026-05-01 13:49 | 4.48852 | 31.28582 | 18697 ft | 295 kts | 17° |
| 2026-05-01 13:50 | 4.50854 | 31.29201 | 18331 ft | 306 kts | 21° |
| 2026-05-01 13:50 | 4.52710 | 31.30252 | 17963 ft | 311 kts | 43° |
| 2026-05-01 13:50 | 4.54289 | 31.31775 | 17568 ft | 319 kts | 46° |
| 2026-05-01 13:50 | 4.55900 | 31.33338 | 17181 ft | 326 kts | 44° |
| 2026-05-01 13:51 | 4.57609 | 31.34867 | 16783 ft | 333 kts | 41° |
| 2026-05-01 13:51 | 4.59399 | 31.36376 | 16396 ft | 339 kts | 40° |
| 2026-05-01 13:51 | 4.61205 | 31.37873 | 16008 ft | 344 kts | 41° |
| 2026-05-01 13:51 | 4.63052 | 31.39419 | 15623 ft | 348 kts | 41° |
| 2026-05-01 13:52 | 4.64915 | 31.40983 | 15238 ft | 352 kts | 41° |
| 2026-05-01 13:52 | 4.66764 | 31.42539 | 14831 ft | 339 kts | 40° |
| 2026-05-01 13:52 | 4.68538 | 31.44029 | 14427 ft | 327 kts | 41° |
| 2026-05-01 13:52 | 4.70249 | 31.45468 | 14031 ft | 317 kts | 41° |
| 2026-05-01 13:53 | 4.71911 | 31.46868 | 13617 ft | 308 kts | 40° |
| 2026-05-01 13:53 | 4.75097 | 31.49552 | 12740 ft | 295 kts | 40° |
| 2026-05-01 13:53 | 4.76652 | 31.50861 | 12305 ft | 289 kts | 40° |
| 2026-05-01 13:54 | 4.78178 | 31.52147 | 11882 ft | 284 kts | 40° |
| 2026-05-01 13:54 | 4.79675 | 31.53410 | 11464 ft | 279 kts | 40° |
| 2026-05-01 13:54 | 4.81152 | 31.54648 | 11092 ft | 273 kts | 40° |
| 2026-05-01 13:54 | 4.82577 | 31.55845 | 10911 ft | 261 kts | 40° |
| 2026-05-01 13:55 | 4.83957 | 31.57008 | 10830 ft | 261 kts | 40° |
| 2026-05-01 13:55 | 4.85312 | 31.58141 | 10783 ft | 253 kts | 40° |
| 2026-05-01 13:55 | 4.86641 | 31.59260 | 10688 ft | 248 kts | 40° |
| 2026-05-01 13:55 | 4.87965 | 31.60375 | 10439 ft | 250 kts | 40° |
| 2026-05-01 13:56 | 4.89306 | 31.61505 | 10130 ft | 254 kts | 40° |
| 2026-05-01 13:56 | 4.90668 | 31.62654 | 9824 ft | 257 kts | 40° |
| 2026-05-01 13:56 | 4.92044 | 31.63817 | 9513 ft | 260 kts | 40° |
| 2026-05-01 13:56 | 4.93438 | 31.64988 | 9184 ft | 262 kts | 40° |
| 2026-05-01 13:57 | 4.94833 | 31.66166 | 8851 ft | 263 kts | 40° |
| 2026-05-01 13:57 | 4.96235 | 31.67343 | 8505 ft | 263 kts | 39° |
| 2026-05-01 13:57 | 4.97840 | 31.68125 | 8150 ft | 264 kts | 8° |
| 2026-05-01 13:57 | 4.99615 | 31.67828 | 8027 ft | 259 kts | 332° |
| 2026-05-01 13:58 | 5.01028 | 31.66770 | 7882 ft | 254 kts | 319° |
| 2026-05-01 13:58 | 5.02283 | 31.65467 | 7382 ft | 266 kts | 309° |
| 2026-05-01 13:58 | 5.03158 | 31.63804 | 6888 ft | 274 kts | 292° |
| 2026-05-01 13:58 | 5.03810 | 31.61988 | 6402 ft | 280 kts | 289° |
| 2026-05-01 13:59 | 5.04457 | 31.60139 | 5891 ft | 280 kts | 289° |
| 2026-05-01 13:59 | 5.05119 | 31.58314 | 5364 ft | 276 kts | 290° |
| 2026-05-01 13:59 | 5.05795 | 31.56543 | 5028 ft | 266 kts | 291° |
| 2026-05-01 13:59 | 5.06457 | 31.54894 | 4872 ft | 250 kts | 291° |
| 2026-05-01 14:00 | 5.07083 | 31.53332 | 4773 ft | 232 kts | 290° |
| 2026-05-01 14:00 | 5.07294 | 31.51753 | 4216 ft | 236 kts | 254° |
| 2026-05-01 14:00 | 5.06474 | 31.50366 | 3737 ft | 234 kts | 220° |
| 2026-05-01 14:00 | 5.05182 | 31.49384 | 3340 ft | 234 kts | 209° |
| 2026-05-01 14:01 | 5.03792 | 31.48594 | 3099 ft | 225 kts | 205° |
| 2026-05-01 14:01 | 5.02455 | 31.47902 | 3045 ft | 203 kts | 205° |
| 2026-05-01 14:01 | 5.01241 | 31.47278 | 3009 ft | 199 kts | 204° |
| 2026-05-01 14:01 | 5.00018 | 31.46642 | 2944 ft | 200 kts | 205° |
| 2026-05-01 14:02 | 4.98679 | 31.46350 | 2925 ft | 198 kts | 169° |
| 2026-05-01 14:02 | 4.97558 | 31.46979 | 2919 ft | 179 kts | 137° |
| 2026-05-01 14:02 | 4.96699 | 31.47824 | 2886 ft | 168 kts | 130° |
| 2026-05-01 14:02 | 4.95963 | 31.48684 | 2896 ft | 154 kts | 127° |
| 2026-05-01 14:03 | 4.95335 | 31.49479 | 2851 ft | 140 kts | 127° |
| 2026-05-01 14:03 | 4.94736 | 31.50294 | 2763 ft | 149 kts | 126° |
| 2026-05-01 14:03 | 4.94170 | 31.51186 | 2705 ft | 154 kts | 122° |
| 2026-05-01 14:03 | 4.93627 | 31.52105 | 2701 ft | 156 kts | 120° |
| 2026-05-01 14:04 | 4.93075 | 31.53025 | 2644 ft | 151 kts | 124° |
| 2026-05-01 14:04 | 4.92478 | 31.53865 | 2538 ft | 146 kts | 128° |
| 2026-05-01 14:04 | 4.91849 | 31.54684 | 2469 ft | 149 kts | 129° |
| 2026-05-01 14:04 | 4.91153 | 31.55471 | 2346 ft | 153 kts | 132° |
| 2026-05-01 14:05 | 4.90444 | 31.56265 | 2199 ft | 151 kts | 131° |
| 2026-05-01 14:05 | 4.89777 | 31.57081 | 2033 ft | 151 kts | 130° |
| 2026-05-01 14:05 | 4.89094 | 31.57886 | 1846 ft | 152 kts | 131° |
| 2026-05-01 14:05 | 4.88421 | 31.58677 | 1640 ft | 150 kts | 130° |
| 2026-05-01 14:06 | 4.87745 | 31.59477 | 1502 ft | 148 kts | 130° |
| 2026-05-01 14:06 | 4.87171 | 31.60146 | 1487 ft | 102 kts | 130° |
| 2026-05-01 14:06 | 4.86825 | 31.60553 | 1483 ft | 55 kts | 131° |
| 2026-05-01 14:06 | 4.86614 | 31.60802 | 1487 ft | 34 kts | 130° |
| 2026-05-01 14:07 | 4.86465 | 31.60873 | 1494 ft | 20 kts | 209° |
| 2026-05-01 14:07 | 4.86382 | 31.60805 | 1508 ft | 12 kts | 241° |
| 2026-05-01 14:07 | 4.86403 | 31.60738 | 1509 ft | 10 kts | 312° |
| 2026-05-01 14:08 | 4.86462 | 31.60668 | 1509 ft | 7 kts | 310° |
| 2026-05-01 14:08 | 4.86505 | 31.60618 | 1509 ft | 11 kts | 311° |
| 2026-05-01 14:08 | 4.86566 | 31.60548 | 1509 ft | 15 kts | 311° |
| 2026-05-01 14:08 | 4.86644 | 31.60457 | 1509 ft | 19 kts | 309° |
| 2026-05-01 14:09 | 4.86703 | 31.60384 | 1509 ft | 12 kts | 308° |
| 2026-05-01 14:09 | 4.86758 | 31.60319 | 1509 ft | 8 kts | 313° |
| 2026-05-01 14:09 | 4.86772 | 31.60284 | 1509 ft | 3 kts | 254° |
| 2026-05-01 14:09 | 4.86764 | 31.60274 | 1510 ft | 1 kts | 212° |
| 2026-05-01 14:10 | 4.86761 | 31.60272 | 1510 ft | 1 kts | 209° |
| 2026-05-01 14:10 | 4.86758 | 31.60271 | 1510 ft | 0 kts | 205° |
| 2026-05-01 14:10 | 4.86752 | 31.60269 | 1508 ft | 3 kts | 195° |
| 2026-05-01 14:10 | 4.86729 | 31.60269 | 1511 ft | 3 kts | 160° |
| 2026-05-01 14:11 | 4.86709 | 31.60284 | 1510 ft | 4 kts | 141° |
| 2026-05-01 14:11 | 4.86682 | 31.60289 | 1510 ft | 1 kts | 215° |
| 2026-05-01 14:11 | 4.86678 | 31.60285 | 1511 ft | 2 kts | 234° |
| 2026-05-01 14:12 | 4.86674 | 31.60272 | 1511 ft | 2 kts | 271° |
| 2026-05-01 14:12 | 4.86677 | 31.60266 | 1511 ft | 1 kts | 311° |
| 2026-05-01 14:12 | 4.86687 | 31.60260 | 1512 ft | 2 kts | 346° |
| 2026-05-01 14:12 | 4.86704 | 31.60260 | 1512 ft | 3 kts | 359° |
| 2026-05-01 14:13 | 4.86713 | 31.60260 | 1512 ft | 0 kts | 0° |